createdAt,value
2018-10-16T00:00:02.933Z,98479.68
2018-10-16T00:02:30.857Z,98490.59
2018-10-16T00:04:58.609Z,98491.72
2018-10-16T00:07:26.505Z,98496.52
2018-10-16T00:09:53.764Z,98488.73
2018-10-16T00:12:22.760Z,98495.95
2018-10-16T00:14:51.571Z,98501.36
2018-10-16T00:17:19.313Z,98497.85
2018-10-16T00:19:46.513Z,98499.47
2018-10-16T00:22:14.211Z,98495.73
2018-10-16T00:24:42.022Z,98464.38
2018-10-16T00:27:09.926Z,98489.14
2018-10-16T00:29:37.830Z,98502.20
2018-10-16T00:32:05.790Z,98498.97
2018-10-16T00:34:33.579Z,98505.09
2018-10-16T00:37:01.228Z,98502.95
2018-10-16T00:41:38.006Z,98506.97
2018-10-16T00:44:06.866Z,98469.98
2018-10-16T00:46:34.838Z,98503.52
2018-10-16T00:49:02.824Z,98506.44
2018-10-16T00:51:30.641Z,98505.41
2018-10-16T00:53:58.745Z,98499.28
2018-10-16T00:56:26.741Z,98499.56
2018-10-16T00:58:55.861Z,98502.23
2018-10-16T01:01:30.997Z,98503.52
2018-10-16T01:04:01.657Z,98498.50
2018-10-16T01:06:30.914Z,98506.50
2018-10-16T01:09:00.740Z,98513.44
2018-10-16T01:11:30.204Z,98480.73
2018-10-16T01:13:58.865Z,98518.54
2018-10-16T01:16:28.791Z,98523.05
2018-10-16T01:18:57.805Z,98527.91
2018-10-16T01:23:26.605Z,98526.31
2018-10-16T01:25:54.509Z,98528.98
2018-10-16T01:28:22.287Z,98533.56
2018-10-16T01:31:36.211Z,98529.27
2018-10-16T01:34:04.188Z,98522.33
2018-10-16T01:36:31.570Z,98519.12
2018-10-16T01:38:59.389Z,98523.92
2018-10-16T01:42:15.218Z,98518.09
2018-10-16T01:44:42.771Z,98523.11
2018-10-16T01:47:10.052Z,98518.06
2018-10-16T01:49:37.930Z,98525.56
2018-10-16T01:52:05.657Z,98520.75
2018-10-16T01:54:33.454Z,98522.89
2018-10-16T01:57:01.301Z,98527.43
2018-10-16T01:59:28.985Z,98522.08
2018-10-16T02:04:26.190Z,98521.02
2018-10-16T02:06:53.998Z,98521.30
2018-10-16T02:09:21.759Z,98521.58
2018-10-16T02:11:49.586Z,98508.57
2018-10-16T02:14:17.622Z,98518.34
2018-10-16T02:16:44.999Z,98522.64
2018-10-16T02:19:12.662Z,98511.75
2018-10-16T02:21:40.381Z,98523.20
2018-10-16T02:24:08.563Z,98528.55
2018-10-16T02:26:36.424Z,98522.45
2018-10-16T02:29:04.806Z,98533.92
2018-10-16T02:31:32.846Z,98533.64
2018-10-16T02:34:00.823Z,98544.84
2018-10-16T02:36:28.642Z,98537.94
2018-10-16T02:38:56.567Z,98519.09
2018-10-16T02:41:23.965Z,98544.38
2018-10-16T02:43:51.712Z,98516.17
2018-10-16T02:46:19.662Z,98548.08
2018-10-16T02:48:47.518Z,98549.16
2018-10-16T02:51:15.469Z,98555.88
2018-10-16T02:53:43.221Z,98560.67
2018-10-16T02:56:11.043Z,98561.23
2018-10-16T02:58:38.989Z,98557.27
2018-10-16T03:01:07.569Z,98548.18
2018-10-16T03:03:37.681Z,98557.21
2018-10-16T03:06:06.208Z,98559.08
2018-10-16T03:08:33.900Z,98565.23
2018-10-16T03:11:02.043Z,98569.55
2018-10-16T03:13:30.014Z,98566.07
2018-10-16T03:15:57.782Z,98538.14
2018-10-16T03:18:25.587Z,98573.28
2018-10-16T03:20:53.309Z,98575.16
2018-10-16T03:23:21.008Z,98577.57
2018-10-16T03:25:48.660Z,98563.19
2018-10-16T03:28:16.513Z,98583.22
2018-10-16T03:30:45.378Z,98581.08
2018-10-16T03:33:13.141Z,98586.68
2018-10-16T03:35:40.836Z,98468.19
2018-10-16T03:38:08.812Z,98587.48
2018-10-16T03:40:36.612Z,98586.68
2018-10-16T03:43:04.594Z,98585.59
2018-10-16T03:45:31.749Z,98596.29
2018-10-16T03:47:59.670Z,98589.38
2018-10-16T03:50:27.550Z,98589.66
2018-10-16T03:52:55.197Z,98598.46
2018-10-16T03:55:23.282Z,98597.13
2018-10-16T03:57:51.170Z,98601.13
2018-10-16T04:00:18.837Z,98597.93
2018-10-16T04:02:46.960Z,98603.33
2018-10-16T04:05:14.658Z,98606.78
2018-10-16T04:07:42.542Z,98602.79
2018-10-16T04:10:10.441Z,98577.20
2018-10-16T04:12:38.381Z,98609.17
2018-10-16T04:15:07.826Z,98601.69
2018-10-16T04:17:35.842Z,98607.59
2018-10-16T04:20:03.711Z,98604.64
2018-10-16T04:22:31.621Z,98610.52
2018-10-16T04:24:59.530Z,98608.38
2018-10-16T04:27:27.458Z,98610.27
2018-10-16T04:29:55.846Z,98610.52
2018-10-16T04:32:23.609Z,98610.78
2018-10-16T04:34:51.518Z,98614.83
2018-10-16T04:37:19.341Z,98616.69
2018-10-16T04:39:47.050Z,98607.35
2018-10-16T04:42:14.926Z,98606.81
2018-10-16T04:44:42.734Z,98600.17
2018-10-16T04:47:09.995Z,98604.44
2018-10-16T04:49:38.060Z,98607.38
2018-10-16T04:52:05.961Z,98587.91
2018-10-16T04:54:33.685Z,98615.34
2018-10-16T04:57:01.614Z,98596.18
2018-10-16T04:59:29.474Z,98619.38
2018-10-16T05:01:57.204Z,98623.64
2018-10-16T05:04:25.058Z,98620.97
2018-10-16T05:06:52.847Z,98624.48
2018-10-16T05:09:20.702Z,98624.48
2018-10-16T05:11:51.461Z,98626.31
2018-10-16T05:14:19.191Z,98619.93
2018-10-16T05:16:47.332Z,98626.06
2018-10-16T05:19:15.140Z,98630.88
2018-10-16T05:21:42.841Z,98630.89
2018-10-16T05:24:11.038Z,98636.51
2018-10-16T05:26:39.311Z,98633.56
2018-10-16T05:29:07.703Z,98635.70
2018-10-16T05:31:36.277Z,98645.03
2018-10-16T05:34:04.590Z,98641.50
2018-10-16T05:36:32.530Z,98640.72
2018-10-16T05:39:00.495Z,98651.96
2018-10-16T05:41:28.502Z,98648.14
2018-10-16T05:43:56.480Z,98653.22
2018-10-16T05:46:24.301Z,98650.93
2018-10-16T05:48:52.052Z,98657.50
2018-10-16T05:51:19.876Z,98654.04
2018-10-16T05:53:47.683Z,98646.81
2018-10-16T05:56:48.766Z,98647.62
2018-10-16T05:59:16.598Z,98664.94
2018-10-16T06:01:44.599Z,98670.79
2018-10-16T06:04:12.522Z,98673.72
2018-10-16T06:06:40.294Z,98674.51
2018-10-16T06:09:08.006Z,98640.95
2018-10-16T06:11:35.826Z,98681.73
2018-10-16T06:14:03.671Z,98679.05
2018-10-16T06:16:31.662Z,98684.41
2018-10-16T06:18:59.749Z,98688.66
2018-10-16T06:21:27.615Z,98687.62
2018-10-16T06:23:55.501Z,98684.15
2018-10-16T06:26:23.479Z,98694.55
2018-10-16T06:28:51.392Z,98690.29
2018-10-16T06:31:19.590Z,98665.23
2018-10-16T06:33:47.467Z,98703.11
2018-10-16T06:36:15.196Z,98696.72
2018-10-16T06:38:42.850Z,98699.38
2018-10-16T06:41:10.762Z,98702.05
2018-10-16T06:43:38.515Z,98704.95
2018-10-16T06:46:05.670Z,98707.94
2018-10-16T06:48:33.968Z,98702.64
2018-10-16T06:51:01.603Z,98705.03
2018-10-16T06:53:29.313Z,98704.53
2018-10-16T06:55:57.029Z,98700.25
2018-10-16T06:58:24.581Z,98694.12
2018-10-16T07:00:52.599Z,98709.86
2018-10-16T07:03:20.582Z,98713.08
2018-10-16T07:05:48.398Z,98713.08
2018-10-16T07:08:15.885Z,98714.42
2018-10-16T07:10:43.685Z,98718.16
2018-10-16T07:13:11.482Z,98715.75
2018-10-16T07:15:39.220Z,98716.00
2018-10-16T07:18:06.849Z,98718.95
2018-10-16T07:20:34.750Z,98717.88
2018-10-16T07:23:02.710Z,98718.16
2018-10-16T07:25:30.586Z,98716.27
2018-10-16T07:27:58.410Z,98718.39
2018-10-16T07:30:26.198Z,98719.44
2018-10-16T07:32:54.194Z,98726.16
2018-10-16T07:35:21.877Z,98719.45
2018-10-16T07:37:49.756Z,98730.40
2018-10-16T07:40:17.585Z,98721.60
2018-10-16T07:42:45.314Z,98729.34
2018-10-16T07:45:13.021Z,98734.94
2018-10-16T07:47:40.396Z,98741.33
2018-10-16T07:50:10.030Z,98738.15
2018-10-16T07:52:38.042Z,98744.55
2018-10-16T07:55:09.757Z,98746.42
2018-10-16T07:57:37.711Z,98750.16
2018-10-16T08:00:07.207Z,98749.89
2018-10-16T08:02:35.073Z,98747.47
2018-10-16T08:05:02.929Z,98715.43
2018-10-16T08:07:30.207Z,98748.53
2018-10-16T08:09:59.369Z,98756.83
2018-10-16T08:12:27.210Z,98750.94
2018-10-16T08:14:54.969Z,98745.86
2018-10-16T08:17:22.933Z,98746.39
2018-10-16T08:19:50.892Z,98746.09
2018-10-16T08:22:18.759Z,98747.72
2018-10-16T08:24:46.666Z,98744.76
2018-10-16T08:27:14.493Z,98748.50
2018-10-16T08:29:42.442Z,98748.77
2018-10-16T08:32:10.214Z,98741.80
2018-10-16T08:34:38.061Z,98750.89
2018-10-16T08:37:08.887Z,98750.10
2018-10-16T08:39:40.219Z,98751.95
2018-10-16T08:44:01.333Z,98701.52
2018-10-16T08:46:46.898Z,98741.24
2018-10-16T08:49:32.649Z,98740.16
2018-10-16T08:52:00.461Z,98742.05
2018-10-16T08:54:28.195Z,98745.00
2018-10-16T08:56:55.945Z,98741.24
2018-10-16T08:59:23.341Z,98744.42
2018-10-16T09:01:51.213Z,98744.14
2018-10-16T09:04:18.974Z,98745.19
2018-10-16T09:06:46.836Z,98744.91
2018-10-16T09:09:15.996Z,98741.98
2018-10-16T09:11:44.314Z,98722.76
2018-10-16T09:14:12.732Z,98731.54
2018-10-16T09:16:40.714Z,98730.73
2018-10-16T09:19:08.749Z,98739.27
2018-10-16T09:21:36.752Z,98746.24
2018-10-16T09:24:04.593Z,98750.25
2018-10-16T09:26:32.344Z,98750.25
2018-10-16T09:29:05.952Z,98751.05
2018-10-16T09:31:33.767Z,98749.98
2018-10-16T09:34:01.602Z,98747.03
2018-10-16T09:36:29.323Z,98751.02
2018-10-16T09:38:57.429Z,98752.08
2018-10-16T09:41:25.202Z,98757.17
2018-10-16T09:43:52.975Z,98752.34
2018-10-16T09:46:20.813Z,98748.59
2018-10-16T09:48:48.688Z,98726.19
2018-10-16T09:51:16.537Z,98744.31
2018-10-16T09:53:44.232Z,98738.71
2018-10-16T09:56:11.966Z,98735.75
2018-10-16T09:58:39.390Z,98733.08
2018-10-16T10:01:13.034Z,98732.52
2018-10-16T10:03:40.481Z,98734.67
2018-10-16T10:06:08.599Z,98735.22
2018-10-16T10:08:36.538Z,98733.61
2018-10-16T10:11:04.657Z,98738.41
2018-10-16T10:13:32.333Z,98730.38
2018-10-16T10:15:59.543Z,98733.88
2018-10-16T10:18:27.218Z,98734.10
2018-10-16T10:20:54.778Z,98730.64
2018-10-16T10:23:22.664Z,98732.26
2018-10-16T10:25:50.317Z,98732.26
2018-10-16T10:28:18.019Z,98729.56
2018-10-16T10:30:45.289Z,98695.96
2018-10-16T10:33:12.968Z,98727.66
2018-10-16T10:35:40.791Z,98708.22
2018-10-16T10:38:08.322Z,98724.20
2018-10-16T10:40:36.057Z,98713.75
2018-10-16T10:43:04.070Z,98714.87
2018-10-16T10:45:31.786Z,98708.68
2018-10-16T10:47:59.610Z,98707.59
2018-10-16T10:50:27.578Z,98708.41
2018-10-16T10:52:55.229Z,98672.45
2018-10-16T10:55:22.974Z,98711.91
2018-10-16T10:57:50.214Z,98708.43
2018-10-16T11:00:17.877Z,98699.08
2018-10-16T11:02:46.993Z,98697.72
2018-10-16T11:05:14.471Z,98700.15
2018-10-16T11:07:42.487Z,98701.21
2018-10-16T11:12:53.197Z,98669.23
2018-10-16T11:15:21.055Z,98695.05
2018-10-16T11:17:48.901Z,98689.97
2018-10-16T11:20:16.714Z,98698.25
2018-10-16T11:22:44.565Z,98694.52
2018-10-16T11:25:12.378Z,98691.59
2018-10-16T11:27:40.389Z,98696.14
2018-10-16T11:30:12.055Z,98695.33
2018-10-16T11:32:39.616Z,98692.13
2018-10-16T11:35:08.238Z,98693.96
2018-10-16T11:37:36.025Z,98691.31
2018-10-16T11:40:04.026Z,98687.55
2018-10-16T11:42:31.806Z,98681.67
2018-10-16T11:44:59.702Z,98683.02
2018-10-16T11:47:27.321Z,98681.41
2018-10-16T11:49:55.028Z,98678.23
2018-10-16T11:52:22.734Z,98647.04
2018-10-16T11:54:50.570Z,98556.47
2018-10-16T11:57:18.350Z,98681.70
2018-10-16T11:59:46.050Z,98682.47
2018-10-16T12:02:13.523Z,98684.64
2018-10-16T12:04:41.184Z,98675.28
2018-10-16T12:07:09.685Z,98682.77
2018-10-16T12:09:37.609Z,98682.50
2018-10-16T12:12:05.606Z,98679.80
2018-10-16T12:14:33.432Z,98676.56
2018-10-16T12:17:06.001Z,98681.13
2018-10-16T12:19:39.327Z,98681.67
2018-10-16T12:22:06.989Z,98671.53
2018-10-16T12:24:34.678Z,98679.24
2018-10-16T12:27:02.640Z,98683.79
2018-10-16T12:29:30.522Z,98678.99
2018-10-16T12:31:58.224Z,98674.98
2018-10-16T12:34:26.071Z,98675.23
2018-10-16T12:36:54.042Z,98672.00
2018-10-16T12:39:21.885Z,98679.78
2018-10-16T12:41:49.840Z,98666.65
2018-10-16T12:44:17.673Z,98668.23
2018-10-16T12:46:45.424Z,98667.73
2018-10-16T12:49:13.188Z,98661.58
2018-10-16T12:51:40.918Z,98664.22
2018-10-16T12:54:08.830Z,98659.15
2018-10-16T12:56:36.663Z,98524.89
2018-10-16T12:59:04.582Z,98666.09
2018-10-16T13:01:32.323Z,98661.30
2018-10-16T13:04:00.044Z,98628.25
2018-10-16T13:06:27.913Z,98659.16
2018-10-16T13:08:55.806Z,98658.06
2018-10-16T13:11:23.594Z,98654.36
2018-10-16T13:13:51.526Z,98657.81
2018-10-16T13:16:19.202Z,98659.69
2018-10-16T13:18:46.857Z,98661.03
2018-10-16T13:21:14.941Z,98660.50
2018-10-16T13:23:42.761Z,98660.22
2018-10-16T13:26:10.543Z,98665.57
2018-10-16T13:28:38.455Z,98657.25
2018-10-16T13:31:06.215Z,98647.89
2018-10-16T13:33:34.051Z,98660.47
2018-10-16T13:36:01.921Z,98656.70
2018-10-16T13:38:29.734Z,98658.58
2018-10-16T13:40:57.596Z,98663.67
2018-10-16T13:43:25.586Z,98659.66
2018-10-16T13:45:53.527Z,98653.47
2018-10-16T13:48:21.409Z,98654.03
2018-10-16T13:50:49.217Z,98658.60
2018-10-16T13:53:17.016Z,98657.48
2018-10-16T13:55:44.934Z,98652.95
2018-10-16T13:58:12.823Z,98642.01
2018-10-16T14:00:40.598Z,98652.92
2018-10-16T14:03:08.450Z,98636.13
2018-10-16T14:05:35.748Z,98652.11
2018-10-16T14:08:03.621Z,98648.34
2018-10-16T14:10:31.566Z,98647.84
2018-10-16T14:12:58.848Z,98649.97
2018-10-16T14:15:28.879Z,98648.09
2018-10-16T14:17:56.672Z,98640.88
2018-10-16T14:20:24.467Z,98650.52
2018-10-16T14:22:52.409Z,98649.16
2018-10-16T14:25:20.157Z,98653.39
2018-10-16T14:27:47.850Z,98650.72
2018-10-16T14:30:16.201Z,98646.98
2018-10-16T14:32:43.674Z,98646.14
2018-10-16T14:35:11.954Z,98647.48
2018-10-16T14:37:39.391Z,98654.73
2018-10-16T14:40:09.350Z,98651.49
2018-10-16T14:42:37.050Z,98647.48
2018-10-16T14:45:06.392Z,98650.44
2018-10-16T14:47:34.187Z,98651.78
2018-10-16T14:50:02.332Z,98653.89
2018-10-16T14:52:30.071Z,98652.55
2018-10-16T14:54:57.865Z,98650.44
2018-10-16T14:57:25.782Z,98650.44
2018-10-16T14:59:53.917Z,98611.23
2018-10-16T15:02:21.704Z,98649.88
2018-10-16T15:04:49.718Z,98649.09
2018-10-16T15:07:17.673Z,98645.08
2018-10-16T15:09:45.971Z,98647.20
2018-10-16T15:12:13.749Z,98644.25
2018-10-16T15:14:41.632Z,98650.69
2018-10-16T15:17:09.465Z,98648.27
2018-10-16T15:19:37.653Z,98610.95
2018-10-16T15:22:05.723Z,98641.01
2018-10-16T15:24:33.678Z,98526.03
2018-10-16T15:27:01.603Z,98648.79
2018-10-16T15:29:29.711Z,98646.11
2018-10-16T15:31:57.635Z,98646.89
2018-10-16T15:34:25.610Z,98649.88
2018-10-16T15:36:53.617Z,98649.57
2018-10-16T15:39:21.549Z,98649.88
2018-10-16T15:41:49.306Z,98646.39
2018-10-16T15:44:16.586Z,98651.22
2018-10-16T15:46:44.505Z,98653.90
2018-10-16T15:49:11.968Z,98660.87
2018-10-16T15:51:39.758Z,98657.33
2018-10-16T15:54:07.609Z,98651.97
2018-10-16T15:56:35.499Z,98652.56
2018-10-16T15:59:03.461Z,98617.40
2018-10-16T16:01:31.317Z,98657.13
2018-10-16T16:03:59.057Z,98653.61
2018-10-16T16:06:26.858Z,98659.27
2018-10-16T16:08:54.846Z,98664.08
2018-10-16T16:11:23.057Z,98670.27
2018-10-16T16:13:50.906Z,98675.39
2018-10-16T16:16:18.768Z,98665.72
2018-10-16T16:18:46.576Z,98672.16
2018-10-16T16:21:14.544Z,98670.88
2018-10-16T16:23:42.735Z,98674.36
2018-10-16T16:26:10.889Z,98677.84
2018-10-16T16:28:38.735Z,98674.61
2018-10-16T16:31:06.601Z,98675.70
2018-10-16T16:33:34.448Z,98675.72
2018-10-16T16:36:02.240Z,98688.07
2018-10-16T16:38:30.022Z,98685.11
2018-10-16T16:40:58.044Z,98681.87
2018-10-16T16:43:25.971Z,98684.58
2018-10-16T16:45:53.672Z,98680.56
2018-10-16T16:48:21.638Z,98682.94
2018-10-16T16:50:49.523Z,98657.84
2018-10-16T16:53:17.582Z,98679.97
2018-10-16T16:55:46.205Z,98684.56
2018-10-16T16:58:13.971Z,98681.86
2018-10-16T17:00:41.906Z,98688.59
2018-10-16T17:03:09.730Z,98688.07
2018-10-16T17:05:37.754Z,98684.83
2018-10-16T17:08:05.720Z,98681.38
2018-10-16T17:10:33.393Z,98689.61
2018-10-16T17:13:01.204Z,98684.00
2018-10-16T17:15:28.916Z,98692.48
2018-10-16T17:19:00.833Z,98661.83
2018-10-16T17:21:28.572Z,98694.30
2018-10-16T17:23:56.194Z,98702.75
2018-10-16T17:26:24.201Z,98701.67
2018-10-16T17:28:51.662Z,98711.02
2018-10-16T17:31:19.289Z,98712.48
2018-10-16T17:33:47.001Z,98718.67
2018-10-16T17:36:14.377Z,98718.15
2018-10-16T17:38:42.197Z,98728.58
2018-10-16T17:41:10.005Z,98727.29
2018-10-16T17:43:37.523Z,98731.05
2018-10-16T17:46:05.686Z,98720.16
2018-10-16T17:48:33.482Z,98732.97
2018-10-16T17:51:01.392Z,98734.55
2018-10-16T17:53:29.159Z,98730.49
2018-10-16T17:56:04.609Z,98632.67
2018-10-16T17:58:32.967Z,98736.38
2018-10-16T18:01:00.782Z,98706.79
2018-10-16T18:03:28.883Z,98718.27
2018-10-16T18:05:56.678Z,98739.91
2018-10-16T18:08:24.695Z,98743.95
2018-10-16T18:10:52.637Z,98746.09
2018-10-16T18:13:20.574Z,98742.08
2018-10-16T18:15:48.378Z,98745.81
2018-10-16T18:18:16.277Z,98747.59
2018-10-16T18:20:43.950Z,98750.50
2018-10-16T18:23:11.777Z,98751.56
2018-10-16T18:27:26.208Z,98753.41
2018-10-16T18:29:54.925Z,98682.22
2018-10-16T18:33:55.195Z,98755.48
2018-10-16T18:36:23.215Z,98749.92
2018-10-16T18:38:54.486Z,98747.80
2018-10-16T18:41:22.325Z,98750.76
2018-10-16T18:43:50.181Z,98750.20
2018-10-16T18:46:18.113Z,98753.86
2018-10-16T18:48:45.969Z,98755.17
2018-10-16T18:51:13.959Z,98751.41
2018-10-16T18:53:42.029Z,98754.92
2018-10-16T18:56:09.438Z,98746.11
2018-10-16T18:58:37.233Z,98744.71
2018-10-16T19:01:05.389Z,98749.27
2018-10-16T19:03:33.302Z,98761.63
2018-10-16T19:08:28.193Z,98760.39
2018-10-16T19:10:56.037Z,98760.14
2018-10-16T19:13:23.925Z,98767.09
2018-10-16T19:15:51.858Z,98773.80
2018-10-16T19:18:19.722Z,98767.09
2018-10-16T19:20:47.703Z,98659.98
2018-10-16T19:23:15.654Z,98765.76
2018-10-16T19:25:43.511Z,98767.09
2018-10-16T19:28:11.549Z,98768.38
2018-10-16T19:30:39.559Z,98768.94
2018-10-16T19:33:07.510Z,98771.05
2018-10-16T19:35:35.212Z,98776.70
2018-10-16T19:38:03.189Z,98773.23
2018-10-16T19:40:33.392Z,98784.59
2018-10-16T19:43:01.181Z,98780.09
2018-10-16T19:45:29.315Z,98782.80
2018-10-16T19:47:57.176Z,98785.75
2018-10-16T19:50:24.998Z,98778.27
2018-10-16T19:52:52.781Z,98781.20
2018-10-16T19:55:20.763Z,98775.82
2018-10-16T19:57:48.587Z,98775.36
2018-10-16T20:00:16.490Z,98770.05
2018-10-16T20:02:44.497Z,98778.64
2018-10-16T20:05:12.302Z,98782.13
2018-10-16T20:07:40.209Z,98778.08
2018-10-16T20:10:09.413Z,98772.80
2018-10-16T20:12:37.477Z,98775.73
2018-10-16T20:15:06.674Z,98769.82
2018-10-16T20:17:34.761Z,98722.66
2018-10-16T20:20:02.586Z,98773.31
2018-10-16T20:22:30.539Z,98777.05
2018-10-16T20:24:57.798Z,98781.06
2018-10-16T20:27:25.585Z,98781.06
2018-10-16T20:29:53.391Z,98738.37
2018-10-16T20:32:20.590Z,98784.00
2018-10-16T20:34:48.578Z,98782.41
2018-10-16T20:37:16.437Z,98779.95
2018-10-16T20:39:43.628Z,98744.27
2018-10-16T20:42:11.642Z,98780.48
2018-10-16T20:44:39.517Z,98779.13
2018-10-16T20:47:17.541Z,98781.84
2018-10-16T20:49:44.709Z,98784.55
2018-10-16T20:52:12.744Z,98779.19
2018-10-16T20:57:22.241Z,98780.00
2018-10-16T20:59:50.199Z,98778.66
2018-10-16T21:02:17.736Z,98776.80
2018-10-16T21:04:45.945Z,98782.72
2018-10-16T21:07:13.923Z,98772.33
2018-10-16T21:09:41.666Z,98776.00
2018-10-16T21:12:10.002Z,98749.02
2018-10-16T21:14:38.033Z,98660.77
2018-10-16T21:17:05.869Z,98754.62
2018-10-16T21:19:33.958Z,98757.79
2018-10-16T21:22:01.678Z,98779.38
2018-10-16T21:24:29.578Z,98778.30
2018-10-16T21:27:04.046Z,98778.57
2018-10-16T21:29:31.405Z,98759.64
2018-10-16T21:31:59.065Z,98775.31
2018-10-16T21:34:26.995Z,98773.74
2018-10-16T21:36:54.343Z,98771.71
2018-10-16T21:39:22.128Z,98771.98
2018-10-16T21:41:49.954Z,98767.09
2018-10-16T21:44:18.417Z,98768.18
2018-10-16T21:46:46.200Z,98772.17
2018-10-16T21:49:13.877Z,98763.36
2018-10-16T21:51:42.007Z,98757.20
2018-10-16T21:54:09.766Z,98751.11
2018-10-16T21:56:38.224Z,98766.61
2018-10-16T21:59:06.101Z,98765.57
2018-10-16T22:01:39.621Z,98765.55
2018-10-16T22:04:07.527Z,98766.38
2018-10-16T22:06:35.119Z,98757.84
2018-10-16T22:09:03.930Z,98740.26
2018-10-16T22:11:32.502Z,98729.53
2018-10-16T22:14:35.714Z,98764.74
2018-10-16T22:17:03.646Z,98763.36
2018-10-16T22:22:04.641Z,98740.92
2018-10-16T22:24:33.554Z,98774.55
2018-10-16T22:27:01.593Z,98771.67
2018-10-16T22:29:28.946Z,98776.45
2018-10-16T22:31:56.854Z,98781.05
2018-10-16T22:34:24.681Z,98782.89
2018-10-16T22:36:52.763Z,98786.88
2018-10-16T22:39:20.617Z,98786.91
2018-10-16T22:41:48.586Z,98787.44
2018-10-16T22:44:15.828Z,98793.85
2018-10-16T22:46:43.934Z,98805.09
2018-10-16T22:51:30.310Z,98794.68
2018-10-16T22:53:58.193Z,98789.37
2018-10-16T22:56:26.033Z,98798.19
2018-10-16T22:58:54.005Z,98799.82
2018-10-16T23:01:21.778Z,98784.61
2018-10-16T23:03:49.785Z,98796.62
2018-10-16T23:06:17.737Z,98673.11
2018-10-16T23:08:45.581Z,98788.28
2018-10-16T23:11:13.675Z,98791.25
2018-10-16T23:13:41.314Z,98786.69
2018-10-16T23:16:09.197Z,98790.22
2018-10-16T23:18:36.963Z,98792.64
2018-10-16T23:21:04.966Z,98796.95
2018-10-16T23:23:33.497Z,98793.44
2018-10-16T23:26:00.773Z,98791.04
2018-10-16T23:28:28.724Z,98577.99
2018-10-16T23:30:56.609Z,98786.52
2018-10-16T23:33:24.498Z,98783.33
2018-10-16T23:35:52.197Z,98781.70
2018-10-16T23:38:19.581Z,98784.66
2018-10-16T23:40:47.502Z,98778.49
2018-10-16T23:43:15.501Z,98777.72
2018-10-16T23:45:43.180Z,98779.34
2018-10-16T23:48:11.315Z,98778.25
2018-10-16T23:50:39.046Z,98779.84
2018-10-16T23:53:06.983Z,98775.56
2018-10-16T23:56:07.202Z,98763.58
2018-10-16T23:58:35.541Z,98776.34
